createdAt,value
2022-08-04T00:09:46.227Z,41
2022-08-04T00:25:28.007Z,41.5
2022-08-04T00:40:58.527Z,42
2022-08-04T00:56:29.047Z,43
2022-08-04T01:27:18.872Z,44
2022-08-04T02:06:16.604Z,46
2022-08-04T02:29:21.219Z,46
2022-08-04T03:08:19.125Z,46.5
2022-08-04T03:39:20.419Z,47.5
2022-08-04T04:02:25.104Z,47.5
2022-08-04T04:41:11.777Z,48
2022-08-04T05:04:50.389Z,47.5
2022-08-04T05:35:40.384Z,47.5
2022-08-04T05:43:36.994Z,47.5
2022-08-04T06:06:30.262Z,47.5
2022-08-04T06:45:27.805Z,48.5
2022-08-04T07:08:43.422Z,47.5
2022-08-04T07:39:44.059Z,43
2022-08-04T07:55:25.659Z,41.5
2022-08-04T08:10:44.599Z,41
2022-08-04T08:41:33.740Z,39.5
2022-08-04T09:04:49.070Z,38.5
2022-08-04T09:35:49.417Z,36.5
2022-08-04T10:07:00.867Z,33.5
2022-08-04T10:30:15.953Z,33
2022-08-04T11:16:34.649Z,30.5
2022-08-04T11:40:12.209Z,28.5
2022-08-04T12:03:04.472Z,28
2022-08-04T12:34:04.065Z,26.5
2022-08-04T12:57:41.222Z,25
2022-08-04T13:28:17.637Z,22.5
2022-08-04T13:59:38.386Z,16.5
2022-08-04T14:22:39.362Z,9
2022-08-04T14:45:50.629Z,7
2022-08-04T14:53:34.366Z,6.5
2022-08-04T15:16:34.577Z,8.5
2022-08-04T15:47:52.688Z,7.5
2022-08-04T15:55:25.311Z,8
2022-08-04T16:18:26.110Z,9.5
2022-08-04T16:57:18.711Z,13
2022-08-04T17:20:43.297Z,14
2022-08-04T17:51:41.672Z,17.5
2022-08-04T17:59:14.725Z,19
2022-08-04T18:22:17.515Z,20.5
2022-08-04T18:45:31.941Z,24
2022-08-04T19:24:27.800Z,26.5
2022-08-04T19:47:53.960Z,28
2022-08-04T20:18:31.280Z,28.5
2022-08-04T20:41:57.586Z,35.5
2022-08-04T21:05:24.229Z,46.5
2022-08-04T21:36:13.398Z,45
2022-08-04T21:51:54.968Z,43
2022-08-04T22:22:44.146Z,40
2022-08-04T22:38:05.507Z,41
2022-08-04T23:16:52.570Z,40
2022-08-04T23:47:49.121Z,41
